Urla, Turkey
Current Conditions -  °F | °C
As of 5:20 AM on Sunday 21 Dec 2014 (Local Time) from LTBJ Reporting Station
Haze Haze  
Wind Chill: 45°   Ceiling: Unl
Heat Index: 45°   Visibility: 3mi
Dew Point: 43°   Wind: 2mph
Humidity: 93%   Direction: NA
Pressure: 30.12"   Gusts: NA
Location:  38.33°N, 26.76°E
Report Text: LTBJ 210220Z VRB02KT 4800 BR FEW030 SCT100 07/06 Q1020 BECMG TL0400 1200 BCFG
Loading
Personal Weather Stations






























Interactive Weather Map New forecast layout! Learn more

10-Day Weather Forecast

Advertisements
Track Severe Weather on mobile